Time;durP1;ratioP1;P1;durP2;ratioP2;P2;SDS_P1;SDS_P2;PMS_P1;PMS_P2;Temp;Humidity;BMP_temperature;BMP_pressure;BME280_temperature;BME280_humidity;BME280_pressure;Samples;Min_cycle;Max_cycle;Signal;HPM_P1;HPM_P2
2023/08/18 00:02:06;;;;;;;0.00;0.00;;;;;;;;;;5114716;28;20066;-80
2023/08/18 00:04:31;;;;;;;0.00;0.00;;;;;;;;;;5114308;28;20118;-80
2023/08/18 00:06:57;;;;;;;0.00;0.00;;;;;;;;;;5113567;28;20118;-80
2023/08/18 00:09:24;;;;;;;0.05;0.00;;;;;;;;;;5113581;28;20088;-80
2023/08/18 00:11:50;;;;;;;0.00;0.00;;;;;;;;;;5113829;28;20424;-80
2023/08/18 00:14:15;;;;;;;0.00;0.00;;;;;;;;;;5096206;28;20032;-80
2023/08/18 00:16:40;;;;;;;0.00;0.00;;;;;;;;;;5096364;28;20027;-80
2023/08/18 00:19:06;;;;;;;0.00;0.00;;;;;;;;;;5112894;28;20035;-80
2023/08/18 00:21:32;;;;;;;0.00;0.00;;;;;;;;;;5114409;28;20028;-81
2023/08/18 00:23:57;;;;;;;0.00;0.00;;;;;;;;;;5113349;28;20368;-81
2023/08/18 00:26:22;;;;;;;0.00;0.00;;;;;;;;;;5113130;28;20027;-80
2023/08/18 00:28:48;;;;;;;0.00;0.00;;;;;;;;;;5114206;28;20465;-80
2023/08/18 00:31:13;;;;;;;0.00;0.00;;;;;;;;;;5096266;28;20028;-80
2023/08/18 00:33:39;;;;;;;0.10;0.00;;;;;;;;;;5112736;28;20019;-80
2023/08/18 00:36:04;;;;;;;0.00;0.00;;;;;;;;;;5112868;28;20469;-80
2023/08/18 00:38:30;;;;;;;0.00;0.00;;;;;;;;;;5112944;28;20050;-78
2023/08/18 00:40:55;;;;;;;0.00;0.00;;;;;;;;;;5096003;28;20116;-80
2023/08/18 00:43:22;;;;;;;0.00;0.00;;;;;;;;;;5114136;28;20084;-80
2023/08/18 00:45:51;;;;;;;0.00;0.00;;;;;;;;;;5095967;28;20376;-80
2023/08/18 00:48:16;;;;;;;0.00;0.00;;;;;;;;;;5096451;28;20107;-80
2023/08/18 00:50:42;;;;;;;0.00;0.00;;;;;;;;;;5095945;28;20476;-80
2023/08/18 00:53:08;;;;;;;0.00;0.00;;;;;;;;;;5079342;28;20031;-81
2023/08/18 00:55:33;;;;;;;0.00;0.00;;;;;;;;;;5113016;28;20032;-80
2023/08/18 00:57:59;;;;;;;0.00;0.00;;;;;;;;;;5095760;28;20465;-80
2023/08/18 01:00:24;;;;;;;0.00;0.00;;;;;;;;;;5096558;28;20074;-80
2023/08/18 01:02:50;;;;;;;0.00;0.00;;;;;;;;;;5099450;28;20516;-80
2023/08/18 01:05:16;;;;;;;0.08;0.00;;;;;;;;;;5116550;28;20050;-80
2023/08/18 01:07:41;;;;;;;0.00;0.00;;;;;;;;;;5099381;28;20444;-80
2023/08/18 01:10:08;;;;;;;0.00;0.00;;;;;;;;;;5133648;27;20062;-79
2023/08/18 01:13:35;;;;;;;0.00;0.00;;;;;;;;;;5116262;28;20027;-78
2023/08/18 01:16:01;;;;;;;0.10;0.00;;;;;;;;;;5071018;28;20102;-79
2023/08/18 01:18:27;;;;;;;0.00;0.00;;;;;;;;;;5037886;28;20039;-79
2023/08/18 01:20:52;;;;;;;0.00;0.00;;;;;;;;;;5068825;28;20106;-79
2023/08/18 01:23:18;;;;;;;0.00;0.00;;;;;;;;;;5115930;28;20035;-79
2023/08/18 01:25:43;;;;;;;0.00;0.00;;;;;;;;;;5115788;28;20084;-79
2023/08/18 01:28:09;;;;;;;0.00;0.00;;;;;;;;;;5116955;28;20104;-79
2023/08/18 01:30:48;;;;;;;0.00;0.00;;;;;;;;;;5115630;28;20032;-80
2023/08/18 01:33:18;;;;;;;0.00;0.00;;;;;;;;;;5099037;28;20024;-80
2023/08/18 01:35:44;;;;;;;0.00;0.00;;;;;;;;;;5099129;28;20482;-79
2023/08/18 01:38:09;;;;;;;0.00;0.00;;;;;;;;;;5099008;28;20119;-79
2023/08/18 01:40:35;;;;;;;0.00;0.00;;;;;;;;;;5098699;28;20020;-79
2023/08/18 01:43:00;;;;;;;0.00;0.00;;;;;;;;;;5115731;28;20068;-78
2023/08/18 01:45:26;;;;;;;0.00;0.00;;;;;;;;;;5115376;28;20023;-78
2023/08/18 01:47:51;;;;;;;0.00;0.00;;;;;;;;;;5115774;28;20136;-79
2023/08/18 01:50:16;;;;;;;0.00;0.00;;;;;;;;;;5098487;28;20028;-79
2023/08/18 01:52:42;;;;;;;0.00;0.00;;;;;;;;;;5117066;28;20403;-79
2023/08/18 01:55:07;;;;;;;0.00;0.00;;;;;;;;;;5115625;28;20027;-79
2023/08/18 01:57:33;;;;;;;0.00;0.00;;;;;;;;;;5115478;28;20357;-79
2023/08/18 01:59:58;;;;;;;0.00;0.00;;;;;;;;;;5116500;28;20030;-79
2023/08/18 02:02:24;;;;;;;0.00;0.00;;;;;;;;;;5115762;28;20023;-80
2023/08/18 02:04:49;;;;;;;0.00;0.00;;;;;;;;;;5098158;28;20376;-80
2023/08/18 02:07:15;;;;;;;0.00;0.00;;;;;;;;;;5098296;28;20093;-79
2023/08/18 02:09:40;;;;;;;0.00;0.00;;;;;;;;;;5098392;28;20091;-79
2023/08/18 02:12:06;;;;;;;0.00;0.00;;;;;;;;;;5098086;28;20104;-80
2023/08/18 02:14:31;;;;;;;0.00;0.00;;;;;;;;;;5116177;28;20104;-80
2023/08/18 02:16:57;;;;;;;0.00;0.00;;;;;;;;;;5115002;28;20024;-80
2023/08/18 02:19:23;;;;;;;0.00;0.00;;;;;;;;;;5097945;28;20032;-79
2023/08/18 02:21:48;;;;;;;0.00;0.00;;;;;;;;;;5114880;28;20096;-78
2023/08/18 02:24:14;;;;;;;0.00;0.00;;;;;;;;;;5114675;28;20040;-79
2023/08/18 02:26:40;;;;;;;0.00;0.00;;;;;;;;;;5116280;28;20173;-79
2023/08/18 02:29:05;;;;;;;0.00;0.00;;;;;;;;;;5114255;28;20048;-79
2023/08/18 02:31:31;;;;;;;0.00;0.00;;;;;;;;;;5115889;28;20034;-79
2023/08/18 02:33:56;;;;;;;0.00;0.00;;;;;;;;;;5114556;28;20027;-79
2023/08/18 02:36:22;;;;;;;0.00;0.00;;;;;;;;;;5114681;28;20028;-81
2023/08/18 02:38:47;;;;;;;0.00;0.00;;;;;;;;;;5114770;28;20024;-80
2023/08/18 02:41:12;;;;;;;0.00;0.00;;;;;;;;;;5097504;28;20027;-80
2023/08/18 02:43:38;;;;;;;0.00;0.00;;;;;;;;;;5114394;28;20024;-80
2023/08/18 02:46:04;;;;;;;0.00;0.00;;;;;;;;;;5114466;28;20523;-80
2023/08/18 02:48:29;;;;;;;0.25;0.00;;;;;;;;;;5097302;28;20034;-80
2023/08/18 02:51:03;;;;;;;0.10;0.00;;;;;;;;;;5097299;28;20410;-81
2023/08/18 02:53:29;;;;;;;0.00;0.00;;;;;;;;;;5097481;28;20035;-80
2023/08/18 02:55:55;;;;;;;0.00;0.00;;;;;;;;;;5115584;28;20384;-81
2023/08/18 02:58:21;;;;;;;0.00;0.00;;;;;;;;;;5113819;28;20024;-80
2023/08/18 03:00:47;;;;;;;0.00;0.00;;;;;;;;;;5080674;28;20027;-80
2023/08/18 03:03:12;;;;;;;0.00;0.00;;;;;;;;;;5115835;28;20088;-80
2023/08/18 03:05:38;;;;;;;0.00;0.00;;;;;;;;;;5113990;28;20440;-80
2023/08/18 03:08:04;;;;;;;0.00;0.00;;;;;;;;;;5114031;28;20020;-80
2023/08/18 03:10:30;;;;;;;0.00;0.00;;;;;;;;;;5097007;28;20032;-80
2023/08/18 03:12:55;;;;;;;0.00;0.00;;;;;;;;;;5113735;28;20024;-79
2023/08/18 03:15:21;;;;;;;0.00;0.00;;;;;;;;;;5115377;28;20084;-80
2023/08/18 03:17:46;;;;;;;0.00;0.00;;;;;;;;;;5097198;28;20026;-80
2023/08/18 03:20:12;;;;;;;0.00;0.00;;;;;;;;;;5097061;28;20360;-81
2023/08/18 03:22:38;;;;;;;0.00;0.00;;;;;;;;;;5096525;28;20422;-80
2023/08/18 03:25:03;;;;;;;0.00;0.00;;;;;;;;;;5080137;28;20034;-81
2023/08/18 03:27:29;;;;;;;0.00;0.00;;;;;;;;;;5113499;28;20038;-80
2023/08/18 03:29:55;;;;;;;0.00;0.00;;;;;;;;;;5096801;28;20031;-80
2023/08/18 03:32:22;;;;;;;0.00;0.00;;;;;;;;;;5114808;28;20365;-79
2023/08/18 03:34:47;;;;;;;0.00;0.00;;;;;;;;;;5113830;28;20036;-81
2023/08/18 03:37:13;;;;;;;0.10;0.00;;;;;;;;;;5114155;28;20031;-80
2023/08/18 03:39:38;;;;;;;0.00;0.00;;;;;;;;;;5113565;28;20378;-80
2023/08/18 03:42:04;;;;;;;0.00;0.00;;;;;;;;;;5114429;28;20024;-79
2023/08/18 03:44:29;;;;;;;0.00;0.00;;;;;;;;;;5115137;28;20169;-80
2023/08/18 03:46:56;;;;;;;0.00;0.00;;;;;;;;;;5113798;28;20047;-80
2023/08/18 03:49:22;;;;;;;0.05;0.00;;;;;;;;;;5096798;28;20035;-78
2023/08/18 03:51:47;;;;;;;0.00;0.00;;;;;;;;;;5113587;28;20386;-79
2023/08/18 03:54:13;;;;;;;0.00;0.00;;;;;;;;;;5113575;28;20092;-78
2023/08/18 03:56:39;;;;;;;0.00;0.00;;;;;;;;;;5113869;28;20028;-80
2023/08/18 03:59:04;;;;;;;0.00;0.00;;;;;;;;;;5096337;28;20028;-80
2023/08/18 04:01:31;;;;;;;0.00;0.00;;;;;;;;;;5114506;28;20089;-79
2023/08/18 04:03:58;;;;;;;0.00;0.00;;;;;;;;;;5113605;28;20024;-78
2023/08/18 04:06:24;;;;;;;0.00;0.00;;;;;;;;;;5096628;28;20464;-78
2023/08/18 04:09:06;;;;;;;0.00;0.00;;;;;;;;;;5113278;28;20048;-78
2023/08/18 04:11:33;;;;;;;0.00;0.00;;;;;;;;;;5080650;28;20031;-79
2023/08/18 04:13:59;;;;;;;0.00;0.00;;;;;;;;;;5114605;28;20063;-78
2023/08/18 04:16:24;;;;;;;0.00;0.00;;;;;;;;;;5096409;28;20456;-80
2023/08/18 04:18:50;;;;;;;0.00;0.00;;;;;;;;;;5113198;28;20066;-80
2023/08/18 04:21:15;;;;;;;0.00;0.00;;;;;;;;;;5113188;28;20059;-80
2023/08/18 04:23:41;;;;;;;0.00;0.00;;;;;;;;;;5114454;28;20042;-79
2023/08/18 04:26:06;;;;;;;0.00;0.00;;;;;;;;;;5113094;28;20038;-80
2023/08/18 04:28:32;;;;;;;0.00;0.00;;;;;;;;;;5096180;28;20412;-80
2023/08/18 04:30:58;;;;;;;0.00;0.00;;;;;;;;;;5114350;28;20059;-79
2023/08/18 04:33:24;;;;;;;0.00;0.00;;;;;;;;;;5113021;28;20020;-80
2023/08/18 04:35:49;;;;;;;0.00;0.00;;;;;;;;;;5117834;28;20031;-80
2023/08/18 04:38:14;;;;;;;0.00;0.00;;;;;;;;;;5116632;28;20465;-81
2023/08/18 04:40:40;;;;;;;0.00;0.00;;;;;;;;;;5100046;28;20034;-80
2023/08/18 04:43:05;;;;;;;0.00;0.00;;;;;;;;;;5118104;28;20027;-80
2023/08/18 04:45:31;;;;;;;0.00;0.00;;;;;;;;;;5118235;28;20023;-80
2023/08/18 04:47:56;;;;;;;0.00;0.00;;;;;;;;;;5117963;28;20031;-78
2023/08/18 04:50:21;;;;;;;0.00;0.00;;;;;;;;;;5118154;28;20032;-80
2023/08/18 04:52:47;;;;;;;0.00;0.00;;;;;;;;;;5117519;28;20034;-80
2023/08/18 04:55:12;;;;;;;0.00;0.00;;;;;;;;;;5116559;28;20376;-79
2023/08/18 04:57:38;;;;;;;0.00;0.00;;;;;;;;;;5117181;28;20437;-80
2023/08/18 05:00:05;;;;;;;0.00;0.00;;;;;;;;;;5117871;28;20032;-80
2023/08/18 05:02:30;;;;;;;0.00;0.00;;;;;;;;;;5116920;28;20036;-79
2023/08/18 05:04:56;;;;;;;0.00;0.00;;;;;;;;;;5116473;28;20123;-80
2023/08/18 05:07:22;;;;;;;0.00;0.00;;;;;;;;;;5116627;28;20110;-80
2023/08/18 05:09:47;;;;;;;0.00;0.00;;;;;;;;;;5117512;28;20463;-79
2023/08/18 05:12:13;;;;;;;0.00;0.00;;;;;;;;;;5099239;28;20028;-80
2023/08/18 05:14:38;;;;;;;0.00;0.00;;;;;;;;;;5117299;28;20046;-80
2023/08/18 05:17:03;;;;;;;0.00;0.00;;;;;;;;;;5116086;28;20126;-80
2023/08/18 05:19:29;;;;;;;0.00;0.00;;;;;;;;;;5115887;28;20035;-80
2023/08/18 05:21:55;;;;;;;0.20;0.05;;;;;;;;;;5116002;28;20433;-80
2023/08/18 05:24:20;;;;;;;0.00;0.00;;;;;;;;;;5115955;28;20031;-80
2023/08/18 05:26:46;;;;;;;0.08;0.00;;;;;;;;;;5115910;28;20130;-81
2023/08/18 05:29:11;;;;;;;0.00;0.00;;;;;;;;;;5117205;28;20107;-80
2023/08/18 05:31:37;;;;;;;0.00;0.00;;;;;;;;;;5117369;28;20027;-80
2023/08/18 05:34:03;;;;;;;0.00;0.00;;;;;;;;;;5117309;28;20069;-81
2023/08/18 05:36:29;;;;;;;0.00;0.00;;;;;;;;;;5117171;28;20553;-80
2023/08/18 05:38:55;;;;;;;0.00;0.00;;;;;;;;;;5082207;28;20168;-80
2023/08/18 05:41:20;;;;;;;0.00;0.00;;;;;;;;;;5115873;28;20027;-79
2023/08/18 05:43:47;;;;;;;0.00;0.00;;;;;;;;;;5115718;28;20092;-80
2023/08/18 05:46:12;;;;;;;0.00;0.00;;;;;;;;;;5116089;28;20437;-81
2023/08/18 05:48:37;;;;;;;0.00;0.00;;;;;;;;;;5098458;28;20126;-80
2023/08/18 05:51:03;;;;;;;0.00;0.00;;;;;;;;;;5115449;28;20126;-80
2023/08/18 05:53:30;;;;;;;0.00;0.00;;;;;;;;;;5098745;28;20027;-80
2023/08/18 05:55:55;;;;;;;0.00;0.00;;;;;;;;;;5098580;28;20084;-80
2023/08/18 05:58:21;;;;;;;0.00;0.00;;;;;;;;;;5115469;28;20023;-80
2023/08/18 06:00:49;;;;;;;0.00;0.00;;;;;;;;;;5114605;28;20039;-80
2023/08/18 06:03:15;;;;;;;0.00;0.00;;;;;;;;;;5081956;28;20027;-81
2023/08/18 06:05:40;;;;;;;0.00;0.00;;;;;;;;;;5114931;28;20375;-81
2023/08/18 06:08:06;;;;;;;0.00;0.00;;;;;;;;;;5115173;28;20028;-80
2023/08/18 06:10:31;;;;;;;0.03;0.03;;;;;;;;;;5116301;28;20094;-81
2023/08/18 06:12:56;;;;;;;0.00;0.00;;;;;;;;;;5115060;28;20032;-80
2023/08/18 06:15:22;;;;;;;0.00;0.00;;;;;;;;;;5097913;28;20035;-80
2023/08/18 06:17:49;;;;;;;0.03;0.03;;;;;;;;;;5115159;28;20116;-82
2023/08/18 06:20:14;;;;;;;0.00;0.00;;;;;;;;;;5115364;28;20069;-82
2023/08/18 06:22:39;;;;;;;0.00;0.00;;;;;;;;;;5114765;28;20112;-80
2023/08/18 06:25:09;;;;;;;0.00;0.00;;;;;;;;;;5115971;28;20130;-81
2023/08/18 06:27:34;;;;;;;0.10;0.10;;;;;;;;;;5115700;28;20524;-81
2023/08/18 06:29:59;;;;;;;0.08;0.08;;;;;;;;;;5114757;28;20031;-81
2023/08/18 06:32:28;;;;;;;0.00;0.00;;;;;;;;;;5114979;28;20106;-80
2023/08/18 06:34:54;;;;;;;0.00;0.00;;;;;;;;;;5097642;28;20027;-81
2023/08/18 06:37:19;;;;;;;0.00;0.00;;;;;;;;;;5114545;28;20419;-81
2023/08/18 06:39:45;;;;;;;0.00;0.00;;;;;;;;;;5097707;28;20038;-80
2023/08/18 06:42:11;;;;;;;0.00;0.00;;;;;;;;;;5097644;28;20470;-79
2023/08/18 06:44:37;;;;;;;0.10;0.10;;;;;;;;;;5115698;28;20081;-80
2023/08/18 06:47:03;;;;;;;0.10;0.10;;;;;;;;;;5116357;28;20024;-80
2023/08/18 06:49:28;;;;;;;0.00;0.00;;;;;;;;;;5114052;28;20039;-80
2023/08/18 06:51:53;;;;;;;0.00;0.00;;;;;;;;;;5097292;28;20027;-81
2023/08/18 06:54:19;;;;;;;0.10;0.10;;;;;;;;;;5115382;28;20490;-80
2023/08/18 06:56:45;;;;;;;0.10;0.10;;;;;;;;;;5097182;28;20023;-79
2023/08/18 06:59:12;;;;;;;0.10;0.10;;;;;;;;;;5096525;28;20020;-80
2023/08/18 07:01:38;;;;;;;0.10;0.10;;;;;;;;;;5114251;28;20042;-80
2023/08/18 07:04:04;;;;;;;0.10;0.10;;;;;;;;;;5113792;28;20027;-80
2023/08/18 07:06:30;;;;;;;0.10;0.10;;;;;;;;;;5115342;28;20027;-81
2023/08/18 07:08:56;;;;;;;0.10;0.10;;;;;;;;;;5115119;28;20160;-80
2023/08/18 07:11:21;;;;;;;0.10;0.10;;;;;;;;;;5115358;28;20057;-80
2023/08/18 07:13:47;;;;;;;0.10;0.10;;;;;;;;;;5097091;28;20424;-80
2023/08/18 07:16:12;;;;;;;0.10;0.10;;;;;;;;;;5115503;28;20469;-79
2023/08/18 07:18:37;;;;;;;0.10;0.10;;;;;;;;;;5115186;28;20366;-80
2023/08/18 07:21:03;;;;;;;0.10;0.10;;;;;;;;;;5096841;28;20027;-81
2023/08/18 07:23:30;;;;;;;0.10;0.10;;;;;;;;;;5114068;28;20055;-81
2023/08/18 07:25:55;;;;;;;0.10;0.10;;;;;;;;;;5115226;28;20028;-80
2023/08/18 07:28:21;;;;;;;0.10;0.10;;;;;;;;;;5115047;28;20113;-79
2023/08/18 07:30:46;;;;;;;0.10;0.10;;;;;;;;;;5097288;28;20039;-79
2023/08/18 07:33:12;;;;;;;0.20;0.10;;;;;;;;;;5122064;28;20428;-79
2023/08/18 07:35:38;;;;;;;0.10;0.10;;;;;;;;;;5102607;28;20031;-78
2023/08/18 07:38:03;;;;;;;0.10;0.10;;;;;;;;;;5102804;28;20092;-79
2023/08/18 07:40:29;;;;;;;0.17;0.17;;;;;;;;;;5124669;28;20039;-81
2023/08/18 07:42:54;;;;;;;0.10;0.10;;;;;;;;;;5103427;28;20035;-80
2023/08/18 07:45:20;;;;;;;0.10;0.10;;;;;;;;;;5113495;28;20023;-81
2023/08/18 07:47:46;;;;;;;0.10;0.10;;;;;;;;;;5096255;28;20463;-80
2023/08/18 07:50:12;;;;;;;0.15;0.15;;;;;;;;;;5113501;28;20122;-81
2023/08/18 07:52:38;;;;;;;0.20;0.20;;;;;;;;;;5113650;28;20111;-81
2023/08/18 07:55:04;;;;;;;0.10;0.10;;;;;;;;;;5096592;28;20031;-81
2023/08/18 07:57:29;;;;;;;0.10;0.10;;;;;;;;;;5113693;28;20028;-81
2023/08/18 07:59:55;;;;;;;0.15;0.15;;;;;;;;;;5113658;28;20023;-81
2023/08/18 08:02:20;;;;;;;0.13;0.13;;;;;;;;;;5095988;28;20422;-79
2023/08/18 08:04:46;;;;;;;0.10;0.10;;;;;;;;;;5096399;28;20054;-80
2023/08/18 08:07:12;;;;;;;0.10;0.10;;;;;;;;;;5113276;28;20036;-79
2023/08/18 08:09:38;;;;;;;0.10;0.10;;;;;;;;;;5098451;28;20031;-79
2023/08/18 08:12:04;;;;;;;0.10;0.10;;;;;;;;;;5117604;28;20089;-79
2023/08/18 08:14:29;;;;;;;0.10;0.10;;;;;;;;;;5117305;28;20035;-79
2023/08/18 08:16:54;;;;;;;0.10;0.10;;;;;;;;;;5116964;28;20059;-81
2023/08/18 08:19:20;;;;;;;0.10;0.10;;;;;;;;;;5118810;28;20152;-79
2023/08/18 08:21:46;;;;;;;0.10;0.10;;;;;;;;;;5100278;28;20516;-81
2023/08/18 08:24:11;;;;;;;0.10;0.10;;;;;;;;;;5117297;28;20082;-81
2023/08/18 08:26:37;;;;;;;0.10;0.10;;;;;;;;;;5100226;28;20119;-81
2023/08/18 08:29:02;;;;;;;0.10;0.10;;;;;;;;;;5117062;28;20051;-81
2023/08/18 08:31:28;;;;;;;0.10;0.10;;;;;;;;;;5116737;28;20059;-80
2023/08/18 08:33:53;;;;;;;0.10;0.10;;;;;;;;;;5117033;28;20024;-81
2023/08/18 08:36:19;;;;;;;0.10;0.10;;;;;;;;;;5082909;28;20134;-81
2023/08/18 08:38:44;;;;;;;0.15;0.15;;;;;;;;;;5117395;28;20051;-81
2023/08/18 08:41:10;;;;;;;0.10;0.10;;;;;;;;;;5100025;28;20032;-81
2023/08/18 08:43:35;;;;;;;0.20;0.20;;;;;;;;;;5117152;28;20035;-81
2023/08/18 08:46:01;;;;;;;0.10;0.10;;;;;;;;;;5116578;28;20051;-81
2023/08/18 08:48:36;;;;;;;0.10;0.10;;;;;;;;;;5099712;28;20028;-80
2023/08/18 08:51:03;;;;;;;0.10;0.10;;;;;;;;;;5099945;28;20380;-80
2023/08/18 08:53:31;;;;;;;0.20;0.20;;;;;;;;;;5116610;28;20491;-80
2023/08/18 08:56:00;;;;;;;0.10;0.10;;;;;;;;;;5099502;28;20448;-81
2023/08/18 08:58:29;;;;;;;0.10;0.10;;;;;;;;;;5116953;28;20364;-78
2023/08/18 09:00:55;;;;;;;0.17;0.17;;;;;;;;;;5100425;28;20411;-78
2023/08/18 09:03:20;;;;;;;0.10;0.10;;;;;;;;;;5116619;28;20065;-81
2023/08/18 09:05:46;;;;;;;0.20;0.20;;;;;;;;;;5099470;28;20027;-80
2023/08/18 09:08:11;;;;;;;0.20;0.20;;;;;;;;;;5133264;27;20035;-81
2023/08/18 09:10:38;;;;;;;0.10;0.10;;;;;;;;;;5117541;28;20020;-78
2023/08/18 09:13:04;;;;;;;0.10;0.10;;;;;;;;;;5117045;27;20027;-80
2023/08/18 09:15:29;;;;;;;0.20;0.20;;;;;;;;;;5099307;28;20046;-80
2023/08/18 09:17:56;;;;;;;0.20;0.20;;;;;;;;;;5117454;28;20031;-80
2023/08/18 09:20:21;;;;;;;0.10;0.10;;;;;;;;;;5116875;28;20035;-81
2023/08/18 09:22:47;;;;;;;0.10;0.10;;;;;;;;;;5099315;28;20023;-80
2023/08/18 09:25:13;;;;;;;0.10;0.00;;;;;;;;;;5116378;28;20031;-81
2023/08/18 09:27:38;;;;;;;0.10;0.10;;;;;;;;;;5099606;28;20590;-81
2023/08/18 09:30:05;;;;;;;0.00;0.00;;;;;;;;;;5116277;28;20024;-81
2023/08/18 09:32:30;;;;;;;0.10;0.10;;;;;;;;;;5116663;28;20084;-81
2023/08/18 09:34:56;;;;;;;0.00;0.00;;;;;;;;;;5117676;28;20040;-81
2023/08/18 09:37:29;;;;;;;0.10;0.10;;;;;;;;;;5101661;28;20455;-81
2023/08/18 09:39:54;;;;;;;0.10;0.10;;;;;;;;;;5118759;28;20138;-80
2023/08/18 09:42:20;;;;;;;0.10;0.10;;;;;;;;;;5116248;28;20065;-79
2023/08/18 09:44:45;;;;;;;0.10;0.10;;;;;;;;;;5115986;28;20102;-81
2023/08/18 09:47:10;;;;;;;0.20;0.20;;;;;;;;;;5082276;28;20030;-81
2023/08/18 09:49:37;;;;;;;0.20;0.20;;;;;;;;;;5115700;28;20028;-82
2023/08/18 09:52:06;;;;;;;0.17;0.17;;;;;;;;;;5098701;28;20030;-81
2023/08/18 09:55:18;;;;;;;0.10;0.10;;;;;;;;;;5115435;28;20118;-81
2023/08/18 09:57:56;;;;;;;0.10;0.10;;;;;;;;;;5114958;28;20589;-80
2023/08/18 10:00:22;;;;;;;0.10;0.10;;;;;;;;;;5098708;28;20027;-80
2023/08/18 10:02:48;;;;;;;0.10;0.10;;;;;;;;;;5132618;27;20392;-80
2023/08/18 10:05:14;;;;;;;0.10;0.10;;;;;;;;;;5115606;28;20372;-81
2023/08/18 10:07:39;;;;;;;0.10;0.10;;;;;;;;;;5115223;28;20027;-80
2023/08/18 10:10:05;;;;;;;0.10;0.10;;;;;;;;;;5098207;28;20036;-80
2023/08/18 10:12:31;;;;;;;0.00;0.00;;;;;;;;;;5114858;28;20032;-81
2023/08/18 10:14:56;;;;;;;0.10;0.10;;;;;;;;;;5098099;28;20047;-81
2023/08/18 10:17:24;;;;;;;0.10;0.10;;;;;;;;;;5081320;28;20071;-81
2023/08/18 10:19:56;;;;;;;0.10;0.10;;;;;;;;;;5115220;28;20028;-81
2023/08/18 10:22:24;;;;;;;0.10;0.10;;;;;;;;;;5114869;28;20432;-81
2023/08/18 10:24:49;;;;;;;0.10;0.10;;;;;;;;;;5098274;28;20042;-81
2023/08/18 10:27:27;;;;;;;0.10;0.10;;;;;;;;;;5114698;28;20416;-80
2023/08/18 10:30:21;;;;;;;0.00;0.00;;;;;;;;;;5115988;28;20067;-81
2023/08/18 10:32:47;;;;;;;0.00;0.00;;;;;;;;;;5115677;28;20093;-79
2023/08/18 10:35:21;;;;;;;0.00;0.00;;;;;;;;;;5114871;28;20027;-79
2023/08/18 10:37:53;;;;;;;0.00;0.00;;;;;;;;;;5114672;28;20122;-79
2023/08/18 10:40:36;;;;;;;0.00;0.00;;;;;;;;;;5080985;28;20071;-79
2023/08/18 10:43:03;;;;;;;0.00;0.00;;;;;;;;;;5114464;28;20024;-79
2023/08/18 10:45:29;;;;;;;0.00;0.00;;;;;;;;;;5097590;28;20127;-79
2023/08/18 10:47:58;;;;;;;0.00;0.00;;;;;;;;;;5097505;28;20114;-80
2023/08/18 10:50:26;;;;;;;0.00;0.00;;;;;;;;;;5114245;28;20077;-79
2023/08/18 10:52:52;;;;;;;0.00;0.00;;;;;;;;;;5114281;28;20032;-80
2023/08/18 10:55:18;;;;;;;0.00;0.00;;;;;;;;;;5097195;28;20437;-78
2023/08/18 10:57:46;;;;;;;0.00;0.00;;;;;;;;;;5115627;28;20030;-79
2023/08/18 11:00:11;;;;;;;0.00;0.00;;;;;;;;;;5115246;27;20030;-80
2023/08/18 11:02:38;;;;;;;0.00;0.00;;;;;;;;;;5114393;28;20032;-80
2023/08/18 11:05:07;;;;;;;0.00;0.00;;;;;;;;;;5080520;28;20027;-80
2023/08/18 11:07:33;;;;;;;0.00;0.00;;;;;;;;;;5114295;28;20088;-81
2023/08/18 11:09:58;;;;;;;0.00;0.00;;;;;;;;;;5113687;28;20457;-81
2023/08/18 11:12:24;;;;;;;0.00;0.00;;;;;;;;;;5114212;28;20028;-79
2023/08/18 11:14:49;;;;;;;0.00;0.00;;;;;;;;;;5113786;28;20031;-80
2023/08/18 11:17:15;;;;;;;0.00;0.00;;;;;;;;;;5115187;28;20028;-79
2023/08/18 11:19:40;;;;;;;0.00;0.00;;;;;;;;;;5113808;28;20026;-79
2023/08/18 11:22:06;;;;;;;0.00;0.00;;;;;;;;;;5115027;28;20070;-79
2023/08/18 11:24:32;;;;;;;0.00;0.00;;;;;;;;;;5113464;28;20118;-80
2023/08/18 11:26:58;;;;;;;0.00;0.00;;;;;;;;;;5115167;28;20027;-78
2023/08/18 11:29:26;;;;;;;0.00;0.00;;;;;;;;;;5113636;28;20054;-79
2023/08/18 11:31:52;;;;;;;0.00;0.00;;;;;;;;;;5080136;28;20031;-79
2023/08/18 11:34:17;;;;;;;0.00;0.00;;;;;;;;;;5113559;28;20032;-80
2023/08/18 11:36:43;;;;;;;0.00;0.00;;;;;;;;;;5096666;28;20023;-80
2023/08/18 11:39:09;;;;;;;0.00;0.00;;;;;;;;;;5113487;28;20049;-79
2023/08/18 11:41:38;;;;;;;0.00;0.00;;;;;;;;;;5096597;28;20027;-82
2023/08/18 11:44:07;;;;;;;0.00;0.00;;;;;;;;;;5096042;28;20047;-81
2023/08/18 11:46:36;;;;;;;0.00;0.00;;;;;;;;;;5113436;28;20024;-78
2023/08/18 11:49:11;;;;;;;0.00;0.00;;;;;;;;;;5096734;28;20057;-80
2023/08/18 11:51:37;;;;;;;0.00;0.00;;;;;;;;;;5113504;28;20131;-78
2023/08/18 11:54:11;;;;;;;0.00;0.00;;;;;;;;;;5079180;28;20499;-79
2023/08/18 11:56:37;;;;;;;0.00;0.00;;;;;;;;;;5114479;28;20046;-79
2023/08/18 11:59:03;;;;;;;0.00;0.00;;;;;;;;;;5113440;28;20106;-80
2023/08/18 12:01:33;;;;;;;0.00;0.00;;;;;;;;;;5113165;28;20081;-80
2023/08/18 12:03:59;;;;;;;0.00;0.00;;;;;;;;;;5096758;28;20028;-80
2023/08/18 12:06:24;;;;;;;0.00;0.00;;;;;;;;;;5113219;28;20449;-79
2023/08/18 12:08:50;;;;;;;0.00;0.00;;;;;;;;;;5114621;28;20028;-79
2023/08/18 12:11:15;;;;;;;0.00;0.00;;;;;;;;;;5114816;28;20419;-80
2023/08/18 12:13:40;;;;;;;0.00;0.00;;;;;;;;;;5113173;28;20445;-78
2023/08/18 12:16:06;;;;;;;0.00;0.00;;;;;;;;;;5113123;28;20073;-80
2023/08/18 12:18:33;;;;;;;0.00;0.00;;;;;;;;;;5113189;28;20107;-82
2023/08/18 12:20:58;;;;;;;0.00;0.00;;;;;;;;;;5114266;28;20042;-80
2023/08/18 12:23:24;;;;;;;0.00;0.00;;;;;;;;;;5114309;28;20028;-80
2023/08/18 12:25:49;;;;;;;0.00;0.00;;;;;;;;;;5096106;28;20039;-81
2023/08/18 12:28:15;;;;;;;0.00;0.00;;;;;;;;;;5114089;28;20388;-80
2023/08/18 12:30:40;;;;;;;0.00;0.00;;;;;;;;;;5095845;28;20062;-80
2023/08/18 12:33:06;;;;;;;0.00;0.00;;;;;;;;;;5113001;28;20069;-80
2023/08/18 12:35:31;;;;;;;0.00;0.00;;;;;;;;;;5096063;28;20028;-79
2023/08/18 12:37:56;;;;;;;0.00;0.00;;;;;;;;;;5095830;28;20411;-79
2023/08/18 12:40:22;;;;;;;0.00;0.00;;;;;;;;;;5114310;28;20024;-79
2023/08/18 12:42:47;;;;;;;0.00;0.00;;;;;;;;;;5113009;28;20083;-79
2023/08/18 12:45:13;;;;;;;0.00;0.00;;;;;;;;;;5113039;28;20027;-80
2023/08/18 12:47:39;;;;;;;0.00;0.00;;;;;;;;;;5079000;28;20027;-79
2023/08/18 12:50:05;;;;;;;0.00;0.00;;;;;;;;;;5079651;28;20448;-80
2023/08/18 12:52:31;;;;;;;0.00;0.00;;;;;;;;;;5095766;28;20020;-79
2023/08/18 12:54:56;;;;;;;0.00;0.00;;;;;;;;;;5113252;28;20039;-80
2023/08/18 12:57:22;;;;;;;0.00;0.00;;;;;;;;;;5116443;28;20471;-79
2023/08/18 12:59:47;;;;;;;0.00;0.00;;;;;;;;;;5116854;28;20022;-79
2023/08/18 13:02:12;;;;;;;0.00;0.00;;;;;;;;;;5116680;28;20031;-79
2023/08/18 13:04:38;;;;;;;0.00;0.00;;;;;;;;;;5116495;28;20097;-79
2023/08/18 13:07:03;;;;;;;0.00;0.00;;;;;;;;;;5116192;28;20038;-79
2023/08/18 13:09:29;;;;;;;0.00;0.00;;;;;;;;;;5116311;28;20030;-79
2023/08/18 13:11:55;;;;;;;0.00;0.00;;;;;;;;;;5099371;28;20031;-79
2023/08/18 13:14:20;;;;;;;0.00;0.00;;;;;;;;;;5099166;28;20453;-79
2023/08/18 13:16:48;;;;;;;0.00;0.00;;;;;;;;;;5116130;28;20027;-79
2023/08/18 13:19:13;;;;;;;0.00;0.00;;;;;;;;;;5082419;28;20023;-80
2023/08/18 13:21:39;;;;;;;0.00;0.00;;;;;;;;;;5098979;28;20077;-80
2023/08/18 13:24:04;;;;;;;0.00;0.00;;;;;;;;;;5117201;28;20068;-79
2023/08/18 13:26:30;;;;;;;0.00;0.00;;;;;;;;;;5098952;28;20472;-79
2023/08/18 13:28:55;;;;;;;0.00;0.00;;;;;;;;;;5081804;28;20046;-79
2023/08/18 13:31:21;;;;;;;0.00;0.00;;;;;;;;;;5115729;28;20032;-79
2023/08/18 13:33:46;;;;;;;0.00;0.00;;;;;;;;;;5116023;28;20024;-80
2023/08/18 13:36:12;;;;;;;0.00;0.00;;;;;;;;;;5115900;28;20406;-79
2023/08/18 13:38:37;;;;;;;0.00;0.00;;;;;;;;;;5115697;28;20488;-79
2023/08/18 13:41:03;;;;;;;0.00;0.00;;;;;;;;;;5115710;28;20357;-79
2023/08/18 13:43:28;;;;;;;0.00;0.00;;;;;;;;;;5082077;28;20096;-79
2023/08/18 13:45:56;;;;;;;0.00;0.00;;;;;;;;;;5098840;28;20122;-80
2023/08/18 13:48:22;;;;;;;0.00;0.00;;;;;;;;;;5099113;28;20023;-80
2023/08/18 13:50:48;;;;;;;0.00;0.00;;;;;;;;;;5098725;28;20453;-80
2023/08/18 13:53:13;;;;;;;0.00;0.00;;;;;;;;;;5098800;28;20118;-81
2023/08/18 13:55:39;;;;;;;0.00;0.00;;;;;;;;;;5115325;28;20391;-80
2023/08/18 13:58:04;;;;;;;0.00;0.00;;;;;;;;;;5081501;28;20412;-80
2023/08/18 14:00:32;;;;;;;0.00;0.00;;;;;;;;;;5116457;28;20032;-80
2023/08/18 14:02:58;;;;;;;0.00;0.00;;;;;;;;;;5115204;28;20481;-81
2023/08/18 14:05:23;;;;;;;0.00;0.00;;;;;;;;;;5132154;27;20028;-80
2023/08/18 14:07:49;;;;;;;0.10;0.00;;;;;;;;;;5132280;27;20031;-79
2023/08/18 14:10:16;;;;;;;0.00;0.00;;;;;;;;;;5114964;28;20081;-79
2023/08/18 14:12:50;;;;;;;0.00;0.00;;;;;;;;;;5115557;28;20368;-80
2023/08/18 14:15:16;;;;;;;0.00;0.00;;;;;;;;;;5116385;28;20031;-80
2023/08/18 14:17:44;;;;;;;0.00;0.00;;;;;;;;;;5097894;28;20027;-78
2023/08/18 14:20:14;;;;;;;0.00;0.00;;;;;;;;;;5114599;28;20020;-79
2023/08/18 14:22:50;;;;;;;0.00;0.00;;;;;;;;;;5114984;28;20132;-78
2023/08/18 14:25:17;;;;;;;0.00;0.00;;;;;;;;;;5099072;28;20103;-79
2023/08/18 14:27:43;;;;;;;0.00;0.00;;;;;;;;;;5114556;28;20051;-79
2023/08/18 14:30:08;;;;;;;0.00;0.00;;;;;;;;;;5114521;28;20069;-79
2023/08/18 14:32:34;;;;;;;0.00;0.00;;;;;;;;;;5114469;28;20058;-79
2023/08/18 14:35:01;;;;;;;0.00;0.00;;;;;;;;;;5115283;28;20081;-80
2023/08/18 14:37:26;;;;;;;0.00;0.00;;;;;;;;;;5081020;28;20072;-79
2023/08/18 14:39:52;;;;;;;0.00;0.00;;;;;;;;;;5080618;28;20114;-79